createdAt,value
2022-09-10T08:04:13.711Z,13.40
2022-09-10T08:06:41.983Z,13.40
2022-09-10T08:09:10.281Z,13.40
2022-09-10T08:11:41.095Z,13.30
2022-09-10T08:14:09.454Z,13.30
2022-09-10T08:16:41.243Z,13.30
2022-09-10T08:19:15.089Z,13.30
2022-09-10T08:21:44.652Z,13.20
2022-09-10T08:24:13.259Z,13.20
2022-09-10T08:26:41.319Z,13.10
2022-09-10T08:29:09.511Z,13.10
2022-09-10T08:31:38.321Z,13.10
2022-09-10T08:34:06.300Z,13.20
2022-09-10T08:36:36.046Z,13.30
2022-09-10T08:39:08.123Z,13.30
2022-09-10T08:41:46.898Z,13.40
2022-09-10T08:44:27.698Z,13.50
2022-09-10T08:47:01.559Z,13.50
2022-09-10T08:49:35.300Z,13.50
2022-09-10T08:52:11.641Z,13.60
2022-09-10T08:54:47.188Z,13.90
2022-09-10T08:57:24.633Z,14.10
2022-09-10T08:59:55.289Z,14.20
2022-09-10T09:02:47.869Z,14.20
2022-09-10T09:05:19.795Z,14.20
2022-09-10T09:07:52.495Z,14.10
2022-09-10T09:10:28.414Z,14.20
2022-09-10T09:13:30.333Z,14.20
2022-09-10T09:16:10.686Z,14.40
2022-09-10T09:18:55.151Z,14.80
2022-09-10T09:21:32.446Z,14.90
2022-09-10T09:24:19.791Z,15.10
2022-09-10T09:26:48.199Z,15.10
2022-09-10T09:29:20.218Z,15.10
2022-09-10T09:31:51.094Z,15.00
2022-09-10T09:34:22.813Z,14.90
2022-09-10T09:36:55.292Z,14.80
2022-09-10T09:39:33.115Z,15.00
2022-09-10T09:42:18.988Z,15.00
2022-09-10T09:44:57.248Z,15.20
2022-09-10T09:47:25.559Z,15.20
2022-09-10T09:49:54.436Z,15.40
2022-09-10T09:52:24.870Z,15.40
2022-09-10T09:55:13.652Z,15.40
2022-09-10T09:57:43.279Z,15.30
2022-09-10T10:00:44.144Z,15.40
2022-09-10T10:03:16.756Z,15.30
2022-09-10T10:05:44.903Z,15.40
